createdAt,value
2018-06-21T00:01:13.165Z,18.20
2018-06-21T00:03:41.291Z,18.20
2018-06-21T00:06:09.434Z,18.10
2018-06-21T00:08:37.606Z,18.10
2018-06-21T00:11:06.266Z,18.00
2018-06-21T00:13:34.928Z,18.00
2018-06-21T00:16:04.194Z,17.90
2018-06-21T00:18:32.380Z,17.80
2018-06-21T00:21:00.533Z,17.80
2018-06-21T00:23:28.663Z,17.80
2018-06-21T00:25:56.774Z,17.80
2018-06-21T00:28:24.897Z,17.80
2018-06-21T00:30:53.036Z,17.90
2018-06-21T00:33:21.165Z,17.90
2018-06-21T00:35:49.308Z,17.90
2018-06-21T00:38:17.422Z,18.00
2018-06-21T00:40:45.543Z,18.10
2018-06-21T00:43:13.675Z,18.20
2018-06-21T00:45:41.778Z,18.20
2018-06-21T00:48:10.848Z,18.10
2018-06-21T00:50:38.961Z,18.00
2018-06-21T00:53:07.083Z,18.00
2018-06-21T00:55:56.107Z,17.90
2018-06-21T00:58:25.013Z,17.90
2018-06-21T01:00:53.145Z,17.90
2018-06-21T01:03:21.252Z,17.90
2018-06-21T01:05:49.494Z,17.90
2018-06-21T01:08:17.631Z,17.90
2018-06-21T01:10:45.739Z,17.90
2018-06-21T01:13:13.842Z,17.90
2018-06-21T01:15:42.810Z,17.70
2018-06-21T01:18:10.918Z,17.70
2018-06-21T01:20:39.461Z,17.70
2018-06-21T01:23:07.571Z,17.60
2018-06-21T01:28:05.872Z,17.60
2018-06-21T01:30:34.003Z,17.60
2018-06-21T01:33:02.119Z,17.50
2018-06-21T01:35:30.256Z,17.50
2018-06-21T01:37:58.370Z,17.40
2018-06-21T01:40:26.571Z,17.40
2018-06-21T01:42:55.606Z,17.40
2018-06-21T01:45:24.638Z,17.40
2018-06-21T01:47:52.766Z,17.30
2018-06-21T01:50:20.901Z,17.40
2018-06-21T01:52:49.029Z,17.30
2018-06-21T01:55:18.055Z,17.40
2018-06-21T01:57:46.159Z,17.40
2018-06-21T02:00:15.223Z,17.40
2018-06-21T02:02:43.339Z,17.50
2018-06-21T02:05:11.681Z,17.50
2018-06-21T02:07:39.833Z,17.50
2018-06-21T02:10:07.958Z,17.30
2018-06-21T02:12:36.085Z,17.10
2018-06-21T02:15:04.299Z,17.10
2018-06-21T02:17:32.429Z,17.10
2018-06-21T02:20:00.577Z,17.10
2018-06-21T02:22:28.686Z,17.10
2018-06-21T02:24:56.799Z,17.10
2018-06-21T02:27:24.907Z,17.10
2018-06-21T02:29:53.768Z,17.20
2018-06-21T02:32:21.884Z,17.20
2018-06-21T02:34:50.118Z,17.20
2018-06-21T02:37:18.250Z,17.20
2018-06-21T02:39:46.431Z,17.20
2018-06-21T02:42:14.559Z,17.20
2018-06-21T02:44:43.622Z,17.30
2018-06-21T02:47:12.255Z,17.30
2018-06-21T02:49:41.106Z,17.30
2018-06-21T02:52:09.221Z,17.30
2018-06-21T02:54:37.350Z,17.30
2018-06-21T02:57:05.464Z,17.10
2018-06-21T02:59:33.582Z,17.10
2018-06-21T03:02:01.941Z,17.10
2018-06-21T03:04:30.058Z,17.10
2018-06-21T03:06:58.161Z,17.10
2018-06-21T03:09:26.267Z,17.10
2018-06-21T03:11:55.256Z,17.20
2018-06-21T03:14:23.372Z,17.10
2018-06-21T03:16:51.498Z,17.10
2018-06-21T03:19:19.619Z,17.10
2018-06-21T03:21:48.501Z,16.90
2018-06-21T03:24:16.676Z,17.00
2018-06-21T03:26:44.796Z,17.00
2018-06-21T03:29:12.914Z,17.00
2018-06-21T03:31:41.036Z,17.10
2018-06-21T03:34:10.184Z,17.00
2018-06-21T03:36:38.300Z,17.00
2018-06-21T03:39:06.416Z,17.00
2018-06-21T03:41:34.524Z,17.00
2018-06-21T03:44:06.426Z,17.00
2018-06-21T03:46:34.620Z,17.10
2018-06-21T03:49:02.758Z,17.10
2018-06-21T03:51:30.875Z,17.00
2018-06-21T03:53:59.069Z,17.00
2018-06-21T03:56:27.213Z,17.00
2018-06-21T03:58:55.326Z,17.10
2018-06-21T04:01:24.214Z,17.20
2018-06-21T04:03:53.101Z,17.20
2018-06-21T04:06:21.993Z,17.30
2018-06-21T04:08:50.877Z,17.30
2018-06-21T04:11:19.027Z,17.40
2018-06-21T04:13:47.120Z,17.50
2018-06-21T04:16:15.630Z,17.50
2018-06-21T04:18:43.767Z,17.50
2018-06-21T04:21:12.674Z,17.50
2018-06-21T04:23:40.783Z,17.50
2018-06-21T04:26:10.141Z,17.60
2018-06-21T04:28:38.256Z,17.70
2018-06-21T04:31:06.362Z,17.70
2018-06-21T04:33:35.273Z,17.90
2018-06-21T04:36:03.404Z,18.00
2018-06-21T04:38:31.910Z,18.10
2018-06-21T04:41:00.037Z,18.10
2018-06-21T04:43:28.150Z,18.20
2018-06-21T04:45:57.061Z,18.30
2018-06-21T04:48:25.463Z,18.30
2018-06-21T04:50:53.617Z,18.50
2018-06-21T04:53:21.733Z,18.70
2018-06-21T04:55:54.148Z,18.80
2018-06-21T04:58:22.807Z,18.90
2018-06-21T05:00:50.935Z,18.90
2018-06-21T05:03:19.051Z,19.10
2018-06-21T05:05:47.278Z,19.30
2018-06-21T05:08:15.416Z,19.40
2018-06-21T05:10:43.540Z,19.70
2018-06-21T05:13:12.424Z,19.80
2018-06-21T05:15:40.587Z,20.00
2018-06-21T05:18:08.715Z,20.20
2018-06-21T05:20:36.850Z,20.40
2018-06-21T05:23:06.349Z,20.60
2018-06-21T05:25:36.501Z,20.80
2018-06-21T05:28:05.623Z,20.90
2018-06-21T05:30:33.741Z,20.90
2018-06-21T05:33:02.512Z,20.90
2018-06-21T05:35:30.830Z,21.00
2018-06-21T05:37:59.854Z,21.00
2018-06-21T05:40:27.962Z,21.10
2018-06-21T05:42:57.852Z,21.20
2018-06-21T05:45:26.720Z,21.30
2018-06-21T05:47:55.833Z,21.30
2018-06-21T05:50:25.038Z,21.40
2018-06-21T05:52:53.175Z,21.40
2018-06-21T05:55:22.549Z,21.50
2018-06-21T05:57:50.647Z,21.50
2018-06-21T06:00:18.757Z,21.50
2018-06-21T06:02:46.872Z,21.60
2018-06-21T06:05:16.052Z,21.70
2018-06-21T06:07:44.163Z,21.70
2018-06-21T06:10:12.976Z,21.70
2018-06-21T06:12:41.130Z,21.80
2018-06-21T06:15:09.776Z,21.90
2018-06-21T06:17:38.544Z,21.90
2018-06-21T06:20:09.202Z,21.90
2018-06-21T06:22:37.326Z,21.90
2018-06-21T06:25:19.864Z,21.90
2018-06-21T06:27:47.954Z,22.00
2018-06-21T06:30:25.492Z,22.10
2018-06-21T06:32:55.128Z,22.10
2018-06-21T06:35:24.125Z,22.20
2018-06-21T06:37:52.230Z,22.30
2018-06-21T06:40:22.195Z,22.40
2018-06-21T06:42:50.274Z,22.50
2018-06-21T06:45:18.463Z,22.60
2018-06-21T06:47:46.604Z,22.70
2018-06-21T06:50:14.718Z,22.80
2018-06-21T06:52:43.460Z,22.90
2018-06-21T06:55:13.550Z,22.90
2018-06-21T06:57:41.656Z,22.90
2018-06-21T07:00:09.812Z,23.00
2018-06-21T07:02:39.217Z,23.10
2018-06-21T07:05:07.432Z,23.10
2018-06-21T07:07:35.548Z,23.20
2018-06-21T07:10:04.575Z,23.40
2018-06-21T07:12:32.754Z,23.30
2018-06-21T07:15:00.868Z,23.60
2018-06-21T07:17:28.999Z,22.80
2018-06-21T07:19:57.132Z,23.80
2018-06-21T07:22:26.012Z,23.90
2018-06-21T07:24:54.994Z,24.00
2018-06-21T07:27:23.121Z,24.10
2018-06-21T07:29:51.254Z,24.20
2018-06-21T07:32:21.158Z,24.30
2018-06-21T07:34:49.343Z,24.30
2018-06-21T07:37:17.540Z,24.30
2018-06-21T07:39:45.654Z,24.40
2018-06-21T07:42:14.367Z,24.50
2018-06-21T07:44:46.799Z,24.50
2018-06-21T07:47:19.692Z,24.60
2018-06-21T07:49:47.884Z,24.60
2018-06-21T07:52:20.536Z,24.70
2018-06-21T07:54:48.662Z,24.80
2018-06-21T07:57:17.675Z,25.00
2018-06-21T07:59:45.798Z,25.00
2018-06-21T08:02:14.999Z,25.00
2018-06-21T08:04:43.197Z,25.10
2018-06-21T08:07:11.316Z,25.10
2018-06-21T08:09:39.717Z,25.10
2018-06-21T08:12:07.830Z,25.20
2018-06-21T08:14:36.015Z,25.20
2018-06-21T08:17:05.534Z,25.40
2018-06-21T08:19:34.926Z,25.40
2018-06-21T08:22:03.055Z,25.40
2018-06-21T08:24:31.305Z,25.40
2018-06-21T08:26:59.904Z,25.40
2018-06-21T08:29:28.059Z,25.60
2018-06-21T08:31:56.954Z,25.60
2018-06-21T08:34:25.206Z,25.60
2018-06-21T08:36:54.257Z,25.70
2018-06-21T08:39:23.415Z,25.70
2018-06-21T08:41:51.620Z,25.80
2018-06-21T08:44:20.635Z,25.70
2018-06-21T08:46:49.713Z,25.70
2018-06-21T08:49:17.944Z,25.60
2018-06-21T08:51:46.718Z,25.60
2018-06-21T08:54:15.830Z,25.60
2018-06-21T08:56:47.182Z,25.60
2018-06-21T08:59:15.592Z,25.90
2018-06-21T09:01:43.736Z,26.10
2018-06-21T09:04:12.508Z,26.10
2018-06-21T09:06:41.598Z,26.30
2018-06-21T09:09:10.748Z,26.30
2018-06-21T09:11:39.554Z,26.40
2018-06-21T09:14:11.332Z,26.40
2018-06-21T09:16:39.473Z,26.70
2018-06-21T09:19:11.058Z,26.90
2018-06-21T09:21:40.091Z,26.90
2018-06-21T09:24:10.390Z,27.00
2018-06-21T09:26:38.558Z,26.90
2018-06-21T09:29:08.157Z,26.80
2018-06-21T09:31:38.012Z,26.70
2018-06-21T09:34:07.831Z,26.80
2018-06-21T09:36:36.837Z,26.70
2018-06-21T09:39:20.718Z,26.40
2018-06-21T09:42:09.495Z,26.10
2018-06-21T09:44:39.659Z,26.20
2018-06-21T09:47:27.621Z,26.10
2018-06-21T09:49:55.746Z,25.90
2018-06-21T09:52:23.865Z,26.00
2018-06-21T09:54:54.025Z,25.90
2018-06-21T09:57:23.336Z,25.90
2018-06-21T09:59:52.270Z,25.90
2018-06-21T10:02:21.746Z,25.80
2018-06-21T10:04:49.854Z,25.70
2018-06-21T10:07:18.371Z,25.70
2018-06-21T10:09:47.211Z,25.70
2018-06-21T10:12:15.333Z,25.70
2018-06-21T10:14:44.808Z,25.70
2018-06-21T10:17:15.157Z,25.60
2018-06-21T10:19:43.751Z,25.60
2018-06-21T10:22:14.238Z,25.60
2018-06-21T10:24:44.331Z,25.70
2018-06-21T10:27:14.621Z,25.80
2018-06-21T10:29:45.101Z,25.90
2018-06-21T10:32:14.837Z,25.90
2018-06-21T10:34:43.001Z,26.10
2018-06-21T10:37:13.031Z,26.30
2018-06-21T10:39:42.402Z,26.40
2018-06-21T10:42:11.791Z,26.30
2018-06-21T10:44:40.860Z,26.20
2018-06-21T10:47:09.092Z,26.30
2018-06-21T10:49:38.394Z,26.20
2018-06-21T10:52:06.530Z,26.30
2018-06-21T10:54:34.746Z,26.30
2018-06-21T10:57:04.013Z,26.50
2018-06-21T10:59:32.241Z,26.60
2018-06-21T11:02:01.239Z,26.70
2018-06-21T11:04:30.179Z,26.60
2018-06-21T11:06:58.363Z,26.60
2018-06-21T11:09:26.467Z,26.80
2018-06-21T11:11:54.947Z,26.90
2018-06-21T11:14:26.690Z,26.90
2018-06-21T11:16:58.745Z,26.80
2018-06-21T11:19:26.769Z,26.80
2018-06-21T11:21:55.129Z,26.90
2018-06-21T11:24:26.363Z,27.00
2018-06-21T11:26:54.526Z,27.10
2018-06-21T11:29:23.542Z,27.20
2018-06-21T11:31:51.653Z,27.00
2018-06-21T11:34:21.914Z,26.80
2018-06-21T11:36:50.766Z,26.50
2018-06-21T11:39:18.873Z,26.40
2018-06-21T11:41:47.699Z,26.30
2018-06-21T11:44:16.887Z,26.30
2018-06-21T11:46:46.267Z,26.20
2018-06-21T11:49:14.893Z,26.30
2018-06-21T11:51:42.992Z,26.10
2018-06-21T11:54:11.180Z,26.20
2018-06-21T11:56:39.284Z,26.30
2018-06-21T11:59:08.300Z,26.60
2018-06-21T12:01:36.418Z,26.80
2018-06-21T12:04:07.798Z,26.90
2018-06-21T12:06:35.895Z,27.10
2018-06-21T12:09:05.154Z,27.20
2018-06-21T12:11:35.148Z,27.00
2018-06-21T12:14:03.353Z,26.60
2018-06-21T12:17:33.143Z,26.70
2018-06-21T12:20:01.458Z,26.80
2018-06-21T12:22:29.570Z,26.90
2018-06-21T12:24:58.260Z,27.00
2018-06-21T12:27:26.770Z,26.90
2018-06-21T12:29:54.871Z,26.90
2018-06-21T12:32:24.761Z,27.10
2018-06-21T12:34:53.774Z,27.10
2018-06-21T12:37:22.895Z,26.90
2018-06-21T12:39:51.774Z,27.00
2018-06-21T12:42:20.215Z,27.00
2018-06-21T12:44:48.402Z,27.00
2018-06-21T12:47:17.518Z,27.00
2018-06-21T12:49:46.470Z,27.20
2018-06-21T12:52:14.571Z,27.30
2018-06-21T12:54:42.820Z,27.60
2018-06-21T12:57:12.354Z,27.70
2018-06-21T12:59:40.467Z,27.50
2018-06-21T13:02:08.601Z,27.40
2018-06-21T13:04:37.691Z,27.60
2018-06-21T13:07:05.898Z,27.80
2018-06-21T13:09:54.973Z,27.80
2018-06-21T13:16:49.532Z,27.70
2018-06-21T13:19:18.444Z,27.40
2018-06-21T13:21:47.145Z,27.40
2018-06-21T13:24:16.104Z,27.20
2018-06-21T13:26:44.215Z,27.10
2018-06-21T13:29:13.107Z,27.00
2018-06-21T13:31:41.978Z,27.00
2018-06-21T13:34:11.129Z,27.00
2018-06-21T13:36:40.117Z,26.80
2018-06-21T13:39:08.990Z,26.70
2018-06-21T13:41:38.017Z,26.80
2018-06-21T13:44:06.324Z,26.80
2018-06-21T13:46:34.528Z,27.50
2018-06-21T13:49:02.666Z,28.90
2018-06-21T13:51:31.069Z,31.00
2018-06-21T13:53:59.309Z,31.30
2018-06-21T13:56:28.643Z,31.00
2018-06-21T13:58:59.183Z,29.50
2018-06-21T14:01:27.409Z,28.80
2018-06-21T14:03:58.729Z,30.00
2018-06-21T14:06:26.973Z,30.70
2018-06-21T14:08:56.634Z,31.60
2018-06-21T14:11:24.811Z,31.60
2018-06-21T14:13:53.665Z,32.30
2018-06-21T14:16:23.062Z,32.70
2018-06-21T14:18:51.934Z,32.40
2018-06-21T14:21:20.041Z,32.40
2018-06-21T14:23:48.568Z,31.80
2018-06-21T14:26:16.650Z,30.60
2018-06-21T14:28:45.626Z,29.30
2018-06-21T14:31:13.762Z,28.50
2018-06-21T14:33:42.661Z,28.00
2018-06-21T14:36:10.867Z,27.50
2018-06-21T14:38:39.006Z,27.10
2018-06-21T14:41:07.126Z,28.10
2018-06-21T14:43:36.479Z,28.60
2018-06-21T14:46:04.585Z,28.50
2018-06-21T14:48:32.704Z,28.30
2018-06-21T14:51:01.571Z,30.70
2018-06-21T14:53:29.679Z,30.70
2018-06-21T14:55:57.788Z,31.30
2018-06-21T14:58:25.895Z,30.50
2018-06-21T15:00:55.099Z,28.30
2018-06-21T15:03:23.197Z,28.30
2018-06-21T15:05:52.449Z,27.90
2018-06-21T15:08:20.551Z,27.30
2018-06-21T15:10:50.326Z,27.00
2018-06-21T15:13:18.548Z,27.00
2018-06-21T15:15:47.232Z,27.10
2018-06-21T15:18:15.329Z,27.30
2018-06-21T15:20:43.433Z,26.40
2018-06-21T15:23:13.484Z,25.90
2018-06-21T15:25:44.178Z,25.50
2018-06-21T15:28:12.300Z,25.40
2018-06-21T15:30:42.511Z,25.90
2018-06-21T15:33:12.198Z,26.00
2018-06-21T15:35:41.457Z,27.20
2018-06-21T15:38:09.600Z,28.10
2018-06-21T15:40:39.117Z,28.30
2018-06-21T15:43:07.713Z,28.30
2018-06-21T15:45:36.629Z,27.60
2018-06-21T15:48:04.763Z,27.50
2018-06-21T15:50:34.969Z,27.40
2018-06-21T15:53:03.060Z,27.30
2018-06-21T15:55:33.317Z,27.40
2018-06-21T15:58:01.558Z,28.90
2018-06-21T16:00:31.816Z,31.00
2018-06-21T16:03:00.021Z,30.90
2018-06-21T16:05:28.413Z,30.70
2018-06-21T16:07:56.620Z,31.10
2018-06-21T16:10:25.622Z,31.00
2018-06-21T16:12:53.703Z,31.10
2018-06-21T16:15:23.158Z,31.70
2018-06-21T16:17:51.237Z,31.70
2018-06-21T16:23:02.375Z,32.30
2018-06-21T16:25:31.021Z,31.70
2018-06-21T16:27:59.103Z,31.50
2018-06-21T16:30:28.175Z,31.70
2018-06-21T16:32:56.247Z,29.90
2018-06-21T16:35:26.350Z,28.30
2018-06-21T16:37:55.191Z,28.70
2018-06-21T16:40:24.631Z,28.90
2018-06-21T16:42:52.727Z,27.60
2018-06-21T16:45:22.016Z,26.70
2018-06-21T16:47:50.118Z,26.00
2018-06-21T16:50:19.906Z,25.50
2018-06-21T16:52:48.007Z,25.50
2018-06-21T16:55:17.172Z,25.00
2018-06-21T16:57:45.290Z,24.20
2018-06-21T17:00:13.426Z,23.70
2018-06-21T17:02:41.553Z,23.50
2018-06-21T17:05:13.703Z,23.30
2018-06-21T17:07:42.559Z,23.00
2018-06-21T17:10:12.547Z,22.80
2018-06-21T17:12:40.643Z,22.80
2018-06-21T17:15:12.142Z,22.60
2018-06-21T17:17:40.253Z,22.40
2018-06-21T17:20:08.369Z,22.40
2018-06-21T17:22:36.491Z,22.50
2018-06-21T17:25:04.688Z,22.40
2018-06-21T17:27:32.816Z,22.40
2018-06-21T17:30:01.411Z,22.30
2018-06-21T17:32:31.292Z,22.00
2018-06-21T17:35:00.262Z,22.20
2018-06-21T17:37:28.778Z,22.20
2018-06-21T17:39:57.604Z,22.10
2018-06-21T17:42:25.727Z,22.20
2018-06-21T17:44:55.066Z,22.20
2018-06-21T17:47:25.119Z,22.20
2018-06-21T17:49:53.279Z,22.20
2018-06-21T17:52:21.415Z,22.30
2018-06-21T17:54:49.532Z,22.00
2018-06-21T17:57:18.118Z,21.90
2018-06-21T17:59:46.235Z,21.90
2018-06-21T18:02:14.359Z,21.90
2018-06-21T18:04:42.480Z,21.80
2018-06-21T18:07:10.622Z,21.60
2018-06-21T18:09:38.729Z,21.60
2018-06-21T18:12:06.836Z,21.70
2018-06-21T18:14:34.995Z,21.70
2018-06-21T18:17:03.119Z,21.70
2018-06-21T18:19:32.030Z,21.40
2018-06-21T18:22:00.157Z,21.40
2018-06-21T18:24:28.280Z,21.30
2018-06-21T18:26:56.423Z,21.20
2018-06-21T18:29:24.515Z,21.10
2018-06-21T18:31:52.628Z,20.90
2018-06-21T18:34:20.749Z,20.80
2018-06-21T18:36:50.337Z,20.60
2018-06-21T18:39:19.315Z,20.50
2018-06-21T18:41:47.445Z,20.40
2018-06-21T18:44:15.667Z,20.10
2018-06-21T18:46:44.495Z,20.00
2018-06-21T18:49:12.670Z,19.90
2018-06-21T18:51:40.793Z,19.80
2018-06-21T18:54:08.995Z,19.60
2018-06-21T18:56:37.894Z,19.50
2018-06-21T18:59:06.771Z,19.40
2018-06-21T19:01:35.931Z,19.40
2018-06-21T19:04:04.378Z,19.40
2018-06-21T19:06:34.974Z,19.40
2018-06-21T19:12:03.050Z,19.20
2018-06-21T19:14:31.771Z,19.10
2018-06-21T19:17:01.252Z,18.90
2018-06-21T19:19:29.425Z,18.80
2018-06-21T19:21:57.572Z,18.70
2018-06-21T19:24:25.804Z,18.70
2018-06-21T19:26:54.724Z,18.60
2018-06-21T19:29:22.918Z,18.50
2018-06-21T19:31:51.619Z,18.40
2018-06-21T19:34:19.742Z,18.30
2018-06-21T19:36:49.680Z,18.10
2018-06-21T19:39:18.781Z,18.10
2018-06-21T19:41:47.165Z,18.00
2018-06-21T19:44:15.272Z,18.00
2018-06-21T19:46:43.395Z,18.10
2018-06-21T19:49:11.643Z,18.00
2018-06-21T19:51:40.056Z,18.00
2018-06-21T19:54:11.480Z,17.90
2018-06-21T19:56:40.417Z,17.90
2018-06-21T19:59:08.538Z,17.80
2018-06-21T20:01:36.704Z,17.70
2018-06-21T20:04:05.014Z,17.80
2018-06-21T20:06:33.189Z,17.80
2018-06-21T20:09:01.341Z,17.70
2018-06-21T20:11:29.561Z,17.70
2018-06-21T20:14:01.526Z,17.60
2018-06-21T20:16:29.851Z,17.60
2018-06-21T20:18:58.887Z,17.60
2018-06-21T20:21:28.760Z,17.50
2018-06-21T20:23:58.766Z,17.50
2018-06-21T20:26:27.697Z,17.50
2018-06-21T20:28:56.379Z,17.40
2018-06-21T20:31:24.991Z,17.40
2018-06-21T20:33:56.360Z,20.80
2018-06-21T20:36:28.362Z,17.30
2018-06-21T20:38:56.804Z,17.20
2018-06-21T20:41:26.216Z,17.20
2018-06-21T20:43:54.389Z,17.10
2018-06-21T20:46:22.540Z,17.00
2018-06-21T20:48:50.791Z,17.00
2018-06-21T20:51:18.881Z,17.00
2018-06-21T20:53:46.995Z,16.90
2018-06-21T20:56:15.117Z,16.80
2018-06-21T20:58:43.233Z,16.70
2018-06-21T21:01:12.523Z,16.70
2018-06-21T21:03:40.675Z,16.70
2018-06-21T21:06:08.787Z,16.60
2018-06-21T21:08:37.623Z,16.50
2018-06-21T21:11:06.080Z,16.40
2018-06-21T21:13:36.168Z,16.40
2018-06-21T21:16:04.324Z,16.30
2018-06-21T21:18:39.292Z,16.20
2018-06-21T21:21:07.384Z,16.10
2018-06-21T21:23:35.880Z,16.00
2018-06-21T21:26:04.153Z,15.90
2018-06-21T21:28:32.327Z,15.80
2018-06-21T21:31:00.387Z,15.70
2018-06-21T21:33:29.088Z,15.60
2018-06-21T21:35:57.522Z,15.60
2018-06-21T21:38:28.689Z,15.50
2018-06-21T21:40:58.391Z,15.40
2018-06-21T21:43:26.475Z,15.30
2018-06-21T21:45:54.865Z,15.30
2018-06-21T21:48:23.601Z,15.20
2018-06-21T21:50:51.761Z,15.00
2018-06-21T21:53:19.875Z,14.90
2018-06-21T21:55:48.275Z,14.90
2018-06-21T21:58:16.434Z,14.80
2018-06-21T22:00:44.516Z,14.80
2018-06-21T22:03:12.651Z,14.60
2018-06-21T22:05:41.849Z,14.60
2018-06-21T22:08:11.127Z,14.50
2018-06-21T22:10:40.195Z,14.50
2018-06-21T22:13:08.316Z,14.40
2018-06-21T22:15:37.402Z,14.50
2018-06-21T22:18:05.526Z,14.40
2018-06-21T22:20:35.139Z,14.40
2018-06-21T22:23:03.235Z,14.30
2018-06-21T22:25:35.422Z,14.20
2018-06-21T22:28:03.524Z,14.30
2018-06-21T22:30:31.781Z,14.10
2018-06-21T22:32:59.890Z,14.00
2018-06-21T22:35:28.126Z,14.00
2018-06-21T22:37:56.236Z,14.00
2018-06-21T22:40:24.339Z,13.80
2018-06-21T22:42:53.362Z,13.80
2018-06-21T22:45:22.585Z,13.80
2018-06-21T22:47:51.088Z,13.70
2018-06-21T22:50:20.197Z,13.60
2018-06-21T22:52:48.831Z,13.60
2018-06-21T22:55:16.989Z,13.50
2018-06-21T22:57:45.675Z,13.50
2018-06-21T23:00:13.804Z,13.40
2018-06-21T23:02:41.938Z,13.40
2018-06-21T23:05:10.098Z,13.40
2018-06-21T23:07:38.229Z,13.40
2018-06-21T23:10:06.330Z,13.30
2018-06-21T23:12:34.455Z,13.20
2018-06-21T23:15:03.848Z,13.20
2018-06-21T23:17:32.764Z,13.10
2018-06-21T23:20:01.048Z,13.00
2018-06-21T23:22:29.134Z,13.00
2018-06-21T23:24:57.343Z,12.90
2018-06-21T23:27:25.462Z,12.80
2018-06-21T23:29:53.876Z,12.80
2018-06-21T23:32:21.982Z,12.80
2018-06-21T23:35:04.312Z,12.70
2018-06-21T23:37:32.473Z,12.70
2018-06-21T23:40:00.579Z,12.60
2018-06-21T23:42:28.737Z,12.60
2018-06-21T23:44:58.914Z,12.60
2018-06-21T23:47:27.939Z,12.70
2018-06-21T23:49:56.801Z,12.60
2018-06-21T23:52:24.927Z,12.60
2018-06-21T23:54:53.044Z,12.60
2018-06-21T23:57:21.152Z,12.50
2018-06-21T23:59:51.271Z,12.50
